TimeMDT,TemperatureF,Dew PointF,Humidity,Sea Level PressureIn,VisibilityMPH,Wind Direction,Wind SpeedMPH,Gust SpeedMPH,PrecipitationIn,Events,Conditions,WindDirDegrees,DateUTC
12:53 AM,69.1,39.0,33,29.73,10.0,South,11.5,-,N/A,,Clear,190,2012-09-11 06:53:00
1:53 AM,66.9,39.0,36,29.73,10.0,Variable,6.9,18.4,N/A,,Clear,0,2012-09-11 07:53:00
2:53 AM,61.0,30.9,32,29.75,10.0,West,8.1,-,N/A,,Clear,280,2012-09-11 08:53:00
3:53 AM,63.0,28.0,27,29.72,10.0,WSW,4.6,-,N/A,,Clear,250,2012-09-11 09:53:00
4:53 AM,63.0,28.9,28,29.73,10.0,NW,9.2,-,N/A,,Clear,310,2012-09-11 10:53:00
5:53 AM,60.1,27.0,28,29.74,10.0,WNW,8.1,-,N/A,,Clear,290,2012-09-11 11:53:00
6:53 AM,64.9,27.0,24,29.75,10.0,WNW,11.5,-,N/A,,Clear,300,2012-09-11 12:53:00
7:53 AM,69.1,28.9,22,29.76,10.0,WNW,9.2,-,N/A,,Clear,300,2012-09-11 13:53:00
8:53 AM,75.9,34.0,22,29.76,10.0,NW,9.2,-,N/A,,Clear,320,2012-09-11 14:53:00
9:53 AM,82.0,39.0,22,29.76,10.0,North,17.3,-,N/A,,Clear,350,2012-09-11 15:53:00
10:53 AM,88.0,39.0,18,29.75,10.0,North,15.0,-,N/A,,Clear,360,2012-09-11 16:53:00
11:53 AM,89.1,37.9,16,29.73,10.0,North,8.1,24.2,N/A,,Clear,10,2012-09-11 17:53:00
12:53 PM,91.0,37.0,15,29.72,10.0,NNE,11.5,17.3,N/A,,Clear,20,2012-09-11 18:53:00
1:53 PM,91.9,37.0,15,29.70,10.0,Calm,Calm,-,N/A,,Partly Cloudy,0,2012-09-11 19:53:00
2:53 PM,90.0,36.0,15,29.69,10.0,East,9.2,-,N/A,,Clear,100,2012-09-11 20:53:00
3:53 PM,90.0,36.0,15,29.68,10.0,South,6.9,-,N/A,,Scattered Clouds,170,2012-09-11 21:53:00
5:53 PM,87.1,34.0,15,29.69,10.0,Calm,Calm,-,N/A,,Clear,0,2012-09-11 23:53:00
6:53 PM,80.1,41.0,25,29.70,10.0,NNW,20.7,26.5,N/A,,Clear,340,2012-09-12 00:53:00
7:53 PM,75.9,37.9,25,29.75,10.0,North,23.0,32.2,N/A,,Clear,10,2012-09-12 01:53:00
8:53 PM,73.9,36.0,25,29.79,10.0,North,23.0,39.1,N/A,,Clear,360,2012-09-12 02:53:00
9:53 PM,69.1,37.0,31,29.82,10.0,North,31.1,39.1,N/A,,Clear,360,2012-09-12 03:53:00
10:53 PM,66.0,42.1,42,29.87,10.0,North,20.7,26.5,N/A,,Clear,350,2012-09-12 04:53:00
11:53 PM,64.9,41.0,42,29.87,10.0,NNE,18.4,-,N/A,,Clear,20,2012-09-12 05:53:00